Holsworthy, United Kingdom
Current Conditions -  °F | °C
As of 4:20 PM on Thursday 30 Oct 2014 (Local Time) from EGHQ Reporting Station
Moderate Fog Moderate Fog  
Wind Chill: 14°   Ceiling: Unl
Heat Index: 14°   Visibility: 0.09mi
Dew Point: 14°   Wind: 12mph
Humidity: 100%   Direction: 160°SSE
Pressure: 29.97"   Gusts: NA
Location:  50.81°N, 4.35°W
Report Text: EGHQ 301620Z 16010KT 0150 FG VV/// 14/14 Q1015
Loading
Personal Weather Stations






























Interactive Weather Map
Tropical Storm Tracking
New forecast layout! Learn more

10-Day Weather Forecast

Advertisements
Track Severe Weather on mobile